DECCN EDFB-EDDN
Flight info
| Callsign | DECCN |
|---|---|
| Flight time | N/A |
| Altitude | |
| Route | |
| Aircraft | PA28 |
Departure
| Time | N/A |
|---|---|
| Airport | Reichelsheim Airfield (EDFB) |
Arrival
| Time | 2026-04-29 14:32 |
|---|---|
| Airport | Nuremberg Airport (EDDN) |
| Time | Latitude | Longitude | Altitude | Speed | Heading |
|---|---|---|---|---|---|
| 2026-04-29 14:22 | 49.61470 | 10.79863 | 2767 ft | 101 kts | 98° |
| 2026-04-29 14:22 | 49.61297 | 10.80906 | 2668 ft | 100 kts | 98° |
| 2026-04-29 14:23 | 49.61126 | 10.81922 | 2627 ft | 96 kts | 98° |
| 2026-04-29 14:23 | 49.60943 | 10.82901 | 2690 ft | 93 kts | 100° |
| 2026-04-29 14:23 | 49.60753 | 10.83893 | 2672 ft | 96 kts | 99° |
| 2026-04-29 14:23 | 49.60583 | 10.84891 | 2651 ft | 98 kts | 95° |
| 2026-04-29 14:24 | 49.60416 | 10.85887 | 2717 ft | 96 kts | 98° |
| 2026-04-29 14:24 | 49.60259 | 10.86901 | 2675 ft | 100 kts | 97° |
| 2026-04-29 14:24 | 49.60103 | 10.87918 | 2679 ft | 96 kts | 97° |
| 2026-04-29 14:24 | 49.59961 | 10.88920 | 2592 ft | 99 kts | 96° |
| 2026-04-29 14:25 | 49.59811 | 10.89959 | 2599 ft | 101 kts | 98° |
| 2026-04-29 14:25 | 49.59635 | 10.90971 | 2622 ft | 97 kts | 99° |
| 2026-04-29 14:25 | 49.59437 | 10.92003 | 2582 ft | 102 kts | 103° |
| 2026-04-29 14:25 | 49.59198 | 10.93031 | 2646 ft | 101 kts | 106° |
| 2026-04-29 14:26 | 49.58958 | 10.94028 | 2744 ft | 97 kts | 105° |
| 2026-04-29 14:26 | 49.58685 | 10.95010 | 2759 ft | 104 kts | 108° |
| 2026-04-29 14:26 | 49.58259 | 10.95920 | 2849 ft | 108 kts | 126° |
| 2026-04-29 14:26 | 49.57689 | 10.96651 | 2938 ft | 107 kts | 131° |
| 2026-04-29 14:27 | 49.57101 | 10.97373 | 2963 ft | 109 kts | 134° |
| 2026-04-29 14:27 | 49.56475 | 10.98087 | 2856 ft | 111 kts | 135° |
| 2026-04-29 14:27 | 49.55862 | 10.98750 | 2822 ft | 109 kts | 137° |
| 2026-04-29 14:28 | 49.54369 | 10.99427 | 2665 ft | 116 kts | 176° |
| 2026-04-29 14:28 | 49.53624 | 10.99291 | 2701 ft | 107 kts | 178° |
| 2026-04-29 14:28 | 49.52857 | 10.99132 | 2559 ft | 115 kts | 180° |
| 2026-04-29 14:28 | 49.52104 | 10.99010 | 2492 ft | 107 kts | 175° |
| 2026-04-29 14:29 | 49.51614 | 10.98958 | 2473 ft | 107 kts | 176° |
| 2026-04-29 14:29 | 49.50911 | 10.98952 | 2438 ft | 88 kts | 150° |
| 2026-04-29 14:29 | 49.50627 | 10.99575 | 2323 ft | 74 kts | 88° |
| 2026-04-29 14:29 | 49.50534 | 11.00339 | 2249 ft | 70 kts | 92° |
| 2026-04-29 14:30 | 49.50451 | 11.01085 | 2121 ft | 67 kts | 88° |
| 2026-04-29 14:30 | 49.50399 | 11.01790 | 1931 ft | 66 kts | 88° |
| 2026-04-29 14:30 | 49.50371 | 11.02480 | 1759 ft | 63 kts | 90° |
| 2026-04-29 14:30 | 49.50319 | 11.03139 | 1592 ft | 61 kts | 92° |
| 2026-04-29 14:31 | 49.50254 | 11.03794 | 1391 ft | 62 kts | 95° |
| 2026-04-29 14:31 | 49.50194 | 11.04449 | 1274 ft | 61 kts | 92° |
| 2026-04-29 14:31 | 49.50134 | 11.05096 | 1187 ft | 61 kts | 92° |
| 2026-04-29 14:31 | 49.50073 | 11.05732 | 1120 ft | 60 kts | 93° |
| 2026-04-29 14:32 | 49.50019 | 11.06368 | 1062 ft | 58 kts | 90° |
| 2026-04-29 14:32 | 49.49954 | 11.06970 | 1033 ft | 56 kts | 94° |
| 2026-04-29 14:32 | 49.49903 | 11.07472 | 1039 ft | 35 kts | 98° |
| 2026-04-29 14:32 | 49.49848 | 11.07633 | 1039 ft | 17 kts | 153° |
| 2026-04-29 14:33 | 49.49781 | 11.07685 | 1039 ft | 0 kts | 152° |
| 2026-04-29 14:34 | 49.49779 | 11.07686 | 1039 ft | 2 kts | 154° |
| 2026-04-29 14:34 | 49.49746 | 11.07712 | 1039 ft | 9 kts | 155° |
| 2026-04-29 14:34 | 49.49681 | 11.07765 | 1036 ft | 12 kts | 158° |
| 2026-04-29 14:35 | 49.49603 | 11.07753 | 1032 ft | 12 kts | 220° |
| 2026-04-29 14:35 | 49.49598 | 11.07655 | 1031 ft | 8 kts | 278° |
| 2026-04-29 14:35 | 49.49607 | 11.07556 | 1030 ft | 11 kts | 277° |
| 2026-04-29 14:35 | 49.49621 | 11.07414 | 1029 ft | 15 kts | 278° |
| 2026-04-29 14:36 | 49.49635 | 11.07260 | 1028 ft | 11 kts | 277° |
| 2026-04-29 14:36 | 49.49569 | 11.07204 | 1025 ft | 15 kts | 190° |
| 2026-04-29 14:36 | 49.49507 | 11.07147 | 1023 ft | 12 kts | 283° |
| 2026-04-29 14:36 | 49.49548 | 11.07091 | 1023 ft | 8 kts | 45° |
| 2026-04-29 14:37 | 49.49536 | 11.07111 | 1023 ft | 2 kts | 150° |
| 2026-04-29 14:37 | 49.49543 | 11.07140 | 1023 ft | 0 kts | 92° |